sensor_id;sensor_type;location;lat;lon;timestamp;pressure;altitude;pressure_sealevel;temperature;humidity
7200;BME280;3641;49.082;8.200;2023-02-28T00:01:21;101223.00;;;1.28;55.45
7200;BME280;3641;49.082;8.200;2023-02-28T00:03:47;101222.66;;;1.20;54.87
7200;BME280;3641;49.082;8.200;2023-02-28T00:06:15;101229.22;;;1.29;55.16
7200;BME280;3641;49.082;8.200;2023-02-28T00:08:42;101220.41;;;1.26;54.72
7200;BME280;3641;49.082;8.200;2023-02-28T00:11:10;101231.97;;;1.14;55.72
7200;BME280;3641;49.082;8.200;2023-02-28T00:13:38;101223.50;;;1.20;55.86
7200;BME280;3641;49.082;8.200;2023-02-28T00:16:07;101226.09;;;0.95;55.66
7200;BME280;3641;49.082;8.200;2023-02-28T00:18:34;101220.06;;;1.18;54.82
7200;BME280;3641;49.082;8.200;2023-02-28T00:21:01;101225.34;;;1.20;55.47
7200;BME280;3641;49.082;8.200;2023-02-28T00:23:29;101230.19;;;1.27;54.83
7200;BME280;3641;49.082;8.200;2023-02-28T00:25:55;101230.16;;;1.15;54.82
7200;BME280;3641;49.082;8.200;2023-02-28T00:28:22;101224.56;;;1.18;54.91
7200;BME280;3641;49.082;8.200;2023-02-28T00:30:49;101219.34;;;1.02;55.87
7200;BME280;3641;49.082;8.200;2023-02-28T00:33:15;101227.16;;;1.19;54.04
7200;BME280;3641;49.082;8.200;2023-02-28T00:35:43;101227.25;;;1.18;54.61
7200;BME280;3641;49.082;8.200;2023-02-28T00:38:11;101228.59;;;1.25;53.72
7200;BME280;3641;49.082;8.200;2023-02-28T00:40:39;101224.91;;;1.26;54.52
7200;BME280;3641;49.082;8.200;2023-02-28T00:43:05;101225.25;;;1.21;54.38
7200;BME280;3641;49.082;8.200;2023-02-28T00:45:32;101231.22;;;1.12;54.60
7200;BME280;3641;49.082;8.200;2023-02-28T00:47:58;101225.34;;;1.20;54.60
7200;BME280;3641;49.082;8.200;2023-02-28T00:50:25;101226.81;;;1.11;54.76
7200;BME280;3641;49.082;8.200;2023-02-28T00:52:51;101230.16;;;1.15;55.50
7200;BME280;3641;49.082;8.200;2023-02-28T00:55:18;101231.53;;;1.07;55.36
7200;BME280;3641;49.082;8.200;2023-02-28T00:57:46;101232.50;;;1.06;55.41
7200;BME280;3641;49.082;8.200;2023-02-28T01:00:13;101232.88;;;1.00;54.89
7200;BME280;3641;49.082;8.200;2023-02-28T01:02:39;101223.97;;;1.00;55.51
7200;BME280;3641;49.082;8.200;2023-02-28T01:05:06;101232.25;;;0.97;55.68
7200;BME280;3641;49.082;8.200;2023-02-28T01:07:33;101230.78;;;1.05;55.80
7200;BME280;3641;49.082;8.200;2023-02-28T01:09:59;101228.19;;;0.77;56.76
7200;BME280;3641;49.082;8.200;2023-02-28T01:12:26;101226.66;;;0.72;56.06
7200;BME280;3641;49.082;8.200;2023-02-28T01:14:54;101231.53;;;0.80;55.96
7200;BME280;3641;49.082;8.200;2023-02-28T01:17:20;101219.19;;;0.90;55.18
7200;BME280;3641;49.082;8.200;2023-02-28T01:19:47;101229.94;;;0.90;55.58
7200;BME280;3641;49.082;8.200;2023-02-28T01:22:13;101227.41;;;0.75;55.79
7200;BME280;3641;49.082;8.200;2023-02-28T01:24:40;101223.97;;;0.72;56.81
7200;BME280;3641;49.082;8.200;2023-02-28T01:27:06;101234.31;;;0.79;56.30
7200;BME280;3641;49.082;8.200;2023-02-28T01:29:33;101225.25;;;0.52;57.80
7200;BME280;3641;49.082;8.200;2023-02-28T01:32:00;101227.41;;;0.75;56.79
7200;BME280;3641;49.082;8.200;2023-02-28T01:34:27;101228.97;;;0.64;57.78
7200;BME280;3641;49.082;8.200;2023-02-28T01:36:53;101224.81;;;0.73;58.58
7200;BME280;3641;49.082;8.200;2023-02-28T01:39:20;101221.69;;;0.94;56.17
7200;BME280;3641;49.082;8.200;2023-02-28T01:41:46;101225.72;;;1.01;55.45
7200;BME280;3641;49.082;8.200;2023-02-28T01:47:17;101217.78;;;0.58;57.50
7200;BME280;3641;49.082;8.200;2023-02-28T01:49:44;101228.09;;;0.64;59.21
7200;BME280;3641;49.082;8.200;2023-02-28T01:52:12;101221.81;;;0.50;59.01
7200;BME280;3641;49.082;8.200;2023-02-28T01:54:46;101220.22;;;0.75;57.79
7200;BME280;3641;49.082;8.200;2023-02-28T01:57:17;101217.06;;;0.68;56.98
7200;BME280;3641;49.082;8.200;2023-02-28T01:59:48;101217.56;;;0.61;58.29
7200;BME280;3641;49.082;8.200;2023-02-28T02:02:20;101212.53;;;0.42;58.55
7200;BME280;3641;49.082;8.200;2023-02-28T02:04:51;101210.72;;;0.28;59.66
7200;BME280;3641;49.082;8.200;2023-02-28T02:07:20;101210.63;;;0.15;59.70
7200;BME280;3641;49.082;8.200;2023-02-28T02:09:46;101205.16;;;0.31;58.83
7200;BME280;3641;49.082;8.200;2023-02-28T02:12:20;101206.28;;;0.41;59.06
7200;BME280;3641;49.082;8.200;2023-02-28T02:15:01;101206.88;;;0.46;59.29
7200;BME280;3641;49.082;8.200;2023-02-28T02:17:35;101202.56;;;0.15;59.84
7200;BME280;3641;49.082;8.200;2023-02-28T02:20:19;101202.28;;;0.34;59.92
7200;BME280;3641;49.082;8.200;2023-02-28T02:26:46;101202.47;;;0.16;59.41
7200;BME280;3641;49.082;8.200;2023-02-28T02:29:35;101205.72;;;0.36;59.30
7200;BME280;3641;49.082;8.200;2023-02-28T02:32:24;101205.25;;;0.29;59.63
7200;BME280;3641;49.082;8.200;2023-02-28T02:35:03;101209.38;;;0.06;59.79
7200;BME280;3641;49.082;8.200;2023-02-28T02:37:37;101203.03;;;0.36;59.71
7200;BME280;3641;49.082;8.200;2023-02-28T02:40:12;101203.81;;;0.09;61.31
7200;BME280;3641;49.082;8.200;2023-02-28T02:42:44;101200.56;;;0.18;60.36
7200;BME280;3641;49.082;8.200;2023-02-28T02:45:17;101202.69;;;-0.01;60.83
7200;BME280;3641;49.082;8.200;2023-02-28T02:47:46;101204.69;;;0.24;58.54
7200;BME280;3641;49.082;8.200;2023-02-28T02:50:17;101202.00;;;0.24;60.51
7200;BME280;3641;49.082;8.200;2023-02-28T02:52:50;101206.59;;;-0.07;61.10
7200;BME280;3641;49.082;8.200;2023-02-28T02:55:20;101196.75;;;0.08;61.87
7200;BME280;3641;49.082;8.200;2023-02-28T02:57:50;101201.50;;;-0.11;62.12
7200;BME280;3641;49.082;8.200;2023-02-28T03:00:22;101205.44;;;-0.17;61.63
7200;BME280;3641;49.082;8.200;2023-02-28T03:02:52;101203.63;;;0.12;61.95
7200;BME280;3641;49.082;8.200;2023-02-28T03:05:24;101202.66;;;0.13;62.06
7200;BME280;3641;49.082;8.200;2023-02-28T03:07:51;101205.63;;;0.23;60.11
7200;BME280;3641;49.082;8.200;2023-02-28T03:10:30;101210.06;;;0.10;61.56
7200;BME280;3641;49.082;8.200;2023-02-28T03:15:57;101210.31;;;-0.38;62.42
7200;BME280;3641;49.082;8.200;2023-02-28T03:18:32;101206.97;;;-0.13;62.56
7200;BME280;3641;49.082;8.200;2023-02-28T03:21:08;101202.00;;;-0.05;62.78
7200;BME280;3641;49.082;8.200;2023-02-28T03:23:42;101211.09;;;0.22;61.44
7200;BME280;3641;49.082;8.200;2023-02-28T03:26:17;101199.31;;;0.24;59.72
7200;BME280;3641;49.082;8.200;2023-02-28T03:28:51;101210.34;;;0.20;60.26
7200;BME280;3641;49.082;8.200;2023-02-28T03:31:26;101207.09;;;0.14;61.11
7200;BME280;3641;49.082;8.200;2023-02-28T03:33:59;101197.69;;;0.07;61.53
7200;BME280;3641;49.082;8.200;2023-02-28T03:36:31;101204.88;;;-0.22;62.67
7200;BME280;3641;49.082;8.200;2023-02-28T03:39:04;101196.22;;;0.16;62.18
7200;BME280;3641;49.082;8.200;2023-02-28T03:41:37;101194.91;;;0.09;61.57
7200;BME280;3641;49.082;8.200;2023-02-28T03:44:10;101194.34;;;-0.11;62.07
7200;BME280;3641;49.082;8.200;2023-02-28T03:46:42;101191.38;;;-0.06;63.49
7200;BME280;3641;49.082;8.200;2023-02-28T03:49:14;101198.25;;;0.12;62.20
7200;BME280;3641;49.082;8.200;2023-02-28T03:51:44;101191.66;;;0.18;62.45
7200;BME280;3641;49.082;8.200;2023-02-28T03:54:15;101194.72;;;0.12;61.25
7200;BME280;3641;49.082;8.200;2023-02-28T03:56:48;101189.16;;;0.15;62.43
7200;BME280;3641;49.082;8.200;2023-02-28T03:59:20;101194.34;;;0.04;63.18
7200;BME280;3641;49.082;8.200;2023-02-28T04:01:49;101190.38;;;0.24;60.78
7200;BME280;3641;49.082;8.200;2023-02-28T04:04:17;101189.63;;;0.07;63.92
7200;BME280;3641;49.082;8.200;2023-02-28T04:06:45;101197.78;;;0.20;61.77
7200;BME280;3641;49.082;8.200;2023-02-28T04:09:15;101198.91;;;0.02;62.76
7200;BME280;3641;49.082;8.200;2023-02-28T04:11:44;101201.13;;;-0.05;63.84
7200;BME280;3641;49.082;8.200;2023-02-28T04:14:12;101194.06;;;-0.06;64.31
7200;BME280;3641;49.082;8.200;2023-02-28T04:16:40;101204.00;;;-0.23;63.92
7200;BME280;3641;49.082;8.200;2023-02-28T04:19:09;101193.38;;;0.05;61.46
7200;BME280;3641;49.082;8.200;2023-02-28T04:21:37;101194.03;;;0.23;59.84
7200;BME280;3641;49.082;8.200;2023-02-28T04:24:07;101197.69;;;-0.07;63.61
7200;BME280;3641;49.082;8.200;2023-02-28T04:26:35;101195.94;;;-0.37;64.64
7200;BME280;3641;49.082;8.200;2023-02-28T04:29:03;101199.59;;;-0.24;63.17
7200;BME280;3641;49.082;8.200;2023-02-28T04:31:30;101190.56;;;-0.23;64.19
7200;BME280;3641;49.082;8.200;2023-02-28T04:33:57;101188.00;;;-0.10;62.99
7200;BME280;3641;49.082;8.200;2023-02-28T04:36:23;101188.41;;;-0.16;63.69
7200;BME280;3641;49.082;8.200;2023-02-28T04:38:50;101185.50;;;-0.27;65.10
7200;BME280;3641;49.082;8.200;2023-02-28T04:41:18;101190.00;;;-0.28;64.80
7200;BME280;3641;49.082;8.200;2023-02-28T04:43:44;101185.13;;;-0.07;64.17
7200;BME280;3641;49.082;8.200;2023-02-28T04:46:11;101183.50;;;0.05;63.54
7200;BME280;3641;49.082;8.200;2023-02-28T04:48:38;101193.06;;;-0.20;63.89
7200;BME280;3641;49.082;8.200;2023-02-28T04:51:07;101187.03;;;-0.09;64.60
7200;BME280;3641;49.082;8.200;2023-02-28T04:53:34;101188.88;;;0.05;63.61
7200;BME280;3641;49.082;8.200;2023-02-28T04:56:01;101189.72;;;0.06;62.37
7200;BME280;3641;49.082;8.200;2023-02-28T04:58:29;101197.88;;;-0.10;64.52
7200;BME280;3641;49.082;8.200;2023-02-28T05:01:01;101199.63;;;0.05;61.25
7200;BME280;3641;49.082;8.200;2023-02-28T05:03:28;101198.53;;;-0.07;63.80
7200;BME280;3641;49.082;8.200;2023-02-28T05:05:55;101210.34;;;0.05;63.27
7200;BME280;3641;49.082;8.200;2023-02-28T05:08:21;101210.06;;;0.10;62.99
7200;BME280;3641;49.082;8.200;2023-02-28T05:10:49;101207.66;;;-0.24;65.20
7200;BME280;3641;49.082;8.200;2023-02-28T05:13:15;101206.50;;;0.09;62.67
7200;BME280;3641;49.082;8.200;2023-02-28T05:15:43;101208.53;;;0.06;64.51
7200;BME280;3641;49.082;8.200;2023-02-28T05:18:09;101204.00;;;-0.08;64.79
7200;BME280;3641;49.082;8.200;2023-02-28T05:20:36;101206.41;;;-0.04;64.87
7200;BME280;3641;49.082;8.200;2023-02-28T05:23:03;101201.91;;;-0.03;64.51
7200;BME280;3641;49.082;8.200;2023-02-28T05:25:29;101209.97;;;-0.03;63.83
7200;BME280;3641;49.082;8.200;2023-02-28T05:27:56;101212.66;;;-0.17;65.60
7200;BME280;3641;49.082;8.200;2023-02-28T05:30:22;101217.22;;;-0.34;65.16
7200;BME280;3641;49.082;8.200;2023-02-28T05:32:51;101217.78;;;-0.29;65.28
7200;BME280;3641;49.082;8.200;2023-02-28T05:35:17;101211.28;;;0.04;63.54
7200;BME280;3641;49.082;8.200;2023-02-28T05:37:44;101218.50;;;-0.11;65.50
7200;BME280;3641;49.082;8.200;2023-02-28T05:40:11;101217.69;;;0.16;62.36
7200;BME280;3641;49.082;8.200;2023-02-28T05:42:38;101209.56;;;0.17;62.86
7200;BME280;3641;49.082;8.200;2023-02-28T05:45:05;101215.78;;;0.32;60.34
7200;BME280;3641;49.082;8.200;2023-02-28T05:47:32;101217.69;;;0.16;64.68
7200;BME280;3641;49.082;8.200;2023-02-28T05:50:00;101218.31;;;0.07;62.57
7200;BME280;3641;49.082;8.200;2023-02-28T05:52:27;101214.72;;;0.21;61.97
7200;BME280;3641;49.082;8.200;2023-02-28T05:54:55;101221.75;;;-0.06;64.99
7200;BME280;3641;49.082;8.200;2023-02-28T05:57:22;101221.28;;;-0.12;65.49
7200;BME280;3641;49.082;8.200;2023-02-28T05:59:48;101216.56;;;0.06;63.17
7200;BME280;3641;49.082;8.200;2023-02-28T06:02:16;101219.63;;;-0.01;65.43
7200;BME280;3641;49.082;8.200;2023-02-28T06:04:43;101217.84;;;0.00;65.88
7200;BME280;3641;49.082;8.200;2023-02-28T06:07:11;101216.56;;;-0.23;65.81
7200;BME280;3641;49.082;8.200;2023-02-28T06:09:38;101221.16;;;-0.25;67.17
7200;BME280;3641;49.082;8.200;2023-02-28T06:12:06;101224.91;;;0.01;65.23
7200;BME280;3641;49.082;8.200;2023-02-28T06:14:35;101212.66;;;0.11;63.40
7200;BME280;3641;49.082;8.200;2023-02-28T06:17:02;101222.31;;;-0.15;65.39
7200;BME280;3641;49.082;8.200;2023-02-28T06:19:29;101219.16;;;-0.07;66.25
7200;BME280;3641;49.082;8.200;2023-02-28T06:21:56;101218.66;;;-0.28;66.28
7200;BME280;3641;49.082;8.200;2023-02-28T06:24:25;101215.13;;;-0.14;65.51
7200;BME280;3641;49.082;8.200;2023-02-28T06:26:53;101221.28;;;-0.12;66.17
7200;BME280;3641;49.082;8.200;2023-02-28T06:29:20;101226.44;;;0.20;63.03
7200;BME280;3641;49.082;8.200;2023-02-28T06:31:47;101213.97;;;0.04;64.51
7200;BME280;3641;49.082;8.200;2023-02-28T06:34:14;101226.34;;;-0.22;65.50
7200;BME280;3641;49.082;8.200;2023-02-28T06:36:41;101221.53;;;-0.31;65.98
7200;BME280;3641;49.082;8.200;2023-02-28T06:39:08;101233.81;;;-0.13;65.16
7200;BME280;3641;49.082;8.200;2023-02-28T06:41:36;101235.25;;;0.07;62.80
7200;BME280;3641;49.082;8.200;2023-02-28T06:44:05;101233.88;;;-0.29;66.06
7200;BME280;3641;49.082;8.200;2023-02-28T06:46:32;101246.38;;;-0.13;66.27
7200;BME280;3641;49.082;8.200;2023-02-28T06:48:58;101243.22;;;-0.06;66.33
7200;BME280;3641;49.082;8.200;2023-02-28T06:51:25;101252.00;;;-0.18;65.42
7200;BME280;3641;49.082;8.200;2023-02-28T06:53:52;101240.63;;;-0.07;64.99
7200;BME280;3641;49.082;8.200;2023-02-28T06:56:19;101250.91;;;0.15;64.82
7200;BME280;3641;49.082;8.200;2023-02-28T06:58:48;101246.47;;;0.28;61.87
7200;BME280;3641;49.082;8.200;2023-02-28T07:01:15;101255.50;;;0.42;61.84
7200;BME280;3641;49.082;8.200;2023-02-28T07:03:42;101259.59;;;0.47;61.86
7200;BME280;3641;49.082;8.200;2023-02-28T07:06:09;101266.63;;;0.50;60.84
7200;BME280;3641;49.082;8.200;2023-02-28T07:08:35;101254.72;;;0.25;63.18
7200;BME280;3641;49.082;8.200;2023-02-28T07:11:02;101260.97;;;0.40;62.16
7200;BME280;3641;49.082;8.200;2023-02-28T07:13:29;101275.72;;;0.47;61.09
7200;BME280;3641;49.082;8.200;2023-02-28T07:15:59;101269.78;;;0.42;61.29
7200;BME280;3641;49.082;8.200;2023-02-28T07:18:26;101277.84;;;0.42;62.38
7200;BME280;3641;49.082;8.200;2023-02-28T07:20:53;101271.53;;;0.43;60.31
7200;BME280;3641;49.082;8.200;2023-02-28T07:23:20;101275.91;;;0.44;61.33
7200;BME280;3641;49.082;8.200;2023-02-28T07:25:47;101278.22;;;0.50;61.50
7200;BME280;3641;49.082;8.200;2023-02-28T07:28:13;101274.47;;;0.53;60.80
7200;BME280;3641;49.082;8.200;2023-02-28T07:30:40;101279.56;;;0.58;61.14
7200;BME280;3641;49.082;8.200;2023-02-28T07:33:08;101280.81;;;0.52;61.26
7200;BME280;3641;49.082;8.200;2023-02-28T07:35:34;101272.00;;;0.50;60.70
7200;BME280;3641;49.082;8.200;2023-02-28T07:38:02;101272.84;;;0.50;61.26
7200;BME280;3641;49.082;8.200;2023-02-28T07:40:29;101271.00;;;0.51;62.18
7200;BME280;3641;49.082;8.200;2023-02-28T07:42:55;101278.31;;;0.49;61.36
7200;BME280;3641;49.082;8.200;2023-02-28T07:45:22;101270.81;;;0.54;61.11
7200;BME280;3641;49.082;8.200;2023-02-28T07:47:48;101277.44;;;0.63;60.33
7200;BME280;3641;49.082;8.200;2023-02-28T07:50:16;101273.50;;;0.54;61.92
7200;BME280;3641;49.082;8.200;2023-02-28T07:52:43;101278.09;;;0.66;60.67
7200;BME280;3641;49.082;8.200;2023-02-28T07:55:10;101284.03;;;0.71;59.98
7200;BME280;3641;49.082;8.200;2023-02-28T07:57:36;101275.78;;;0.75;60.69
7200;BME280;3641;49.082;8.200;2023-02-28T08:00:04;101283.75;;;0.76;59.59
7200;BME280;3641;49.082;8.200;2023-02-28T08:02:30;101285.13;;;0.69;61.51
7200;BME280;3641;49.082;8.200;2023-02-28T08:04:57;101283.78;;;0.47;62.10
7200;BME280;3641;49.082;8.200;2023-02-28T08:07:25;101282.31;;;0.70;60.28
7200;BME280;3641;49.082;8.200;2023-02-28T08:09:51;101287.69;;;0.70;61.74
7200;BME280;3641;49.082;8.200;2023-02-28T08:12:18;101281.81;;;0.78;60.32
7200;BME280;3641;49.082;8.200;2023-02-28T08:14:44;101285.84;;;0.85;60.32
7200;BME280;3641;49.082;8.200;2023-02-28T08:17:11;101282.69;;;0.79;60.32
7200;BME280;3641;49.082;8.200;2023-02-28T08:19:38;101278.56;;;0.73;60.55
7200;BME280;3641;49.082;8.200;2023-02-28T08:22:04;101285.47;;;0.77;60.76
7200;BME280;3641;49.082;8.200;2023-02-28T08:24:32;101294.47;;;0.90;59.64
7200;BME280;3641;49.082;8.200;2023-02-28T08:26:59;101293.50;;;0.92;59.90
7200;BME280;3641;49.082;8.200;2023-02-28T08:29:25;101287.75;;;0.98;59.91
7200;BME280;3641;49.082;8.200;2023-02-28T08:31:52;101301.38;;;0.95;60.71
7200;BME280;3641;49.082;8.200;2023-02-28T08:34:18;101288.94;;;1.06;59.21
7200;BME280;3641;49.082;8.200;2023-02-28T08:36:45;101291.47;;;0.95;62.00
7200;BME280;3641;49.082;8.200;2023-02-28T08:39:11;101300.88;;;1.02;60.83
7200;BME280;3641;49.082;8.200;2023-02-28T08:41:39;101298.59;;;1.23;59.24
7200;BME280;3641;49.082;8.200;2023-02-28T08:44:06;101305.44;;;1.15;59.41
7200;BME280;3641;49.082;8.200;2023-02-28T08:46:32;101303.16;;;1.08;59.31
7200;BME280;3641;49.082;8.200;2023-02-28T08:48:59;101294.88;;;1.12;60.71
7200;BME280;3641;49.082;8.200;2023-02-28T08:51:27;101293.31;;;1.22;60.22
7200;BME280;3641;49.082;8.200;2023-02-28T08:53:57;101295.91;;;1.23;59.97
7200;BME280;3641;49.082;8.200;2023-02-28T08:56:24;101292.13;;;1.26;58.93
7200;BME280;3641;49.082;8.200;2023-02-28T08:58:54;101297.47;;;1.40;59.55
7200;BME280;3641;49.082;8.200;2023-02-28T09:01:23;101299.69;;;1.61;58.33
7200;BME280;3641;49.082;8.200;2023-02-28T09:03:50;101297.84;;;1.49;59.15
7200;BME280;3641;49.082;8.200;2023-02-28T09:06:19;101299.34;;;1.53;59.61
7200;BME280;3641;49.082;8.200;2023-02-28T09:08:46;101286.91;;;1.65;58.73
7200;BME280;3641;49.082;8.200;2023-02-28T09:11:12;101289.91;;;1.60;58.43
7200;BME280;3641;49.082;8.200;2023-02-28T09:13:39;101289.88;;;1.47;58.27
7200;BME280;3641;49.082;8.200;2023-02-28T09:16:09;101294.06;;;1.51;58.73
7200;BME280;3641;49.082;8.200;2023-02-28T09:18:37;101292.16;;;1.53;58.56
7200;BME280;3641;49.082;8.200;2023-02-28T09:21:04;101292.94;;;1.81;57.72
7200;BME280;3641;49.082;8.200;2023-02-28T09:23:31;101291.44;;;1.77;58.05
7200;BME280;3641;49.082;8.200;2023-02-28T09:25:58;101303.06;;;1.77;58.45
7200;BME280;3641;49.082;8.200;2023-02-28T09:28:24;101297.28;;;1.96;57.71
7200;BME280;3641;49.082;8.200;2023-02-28T09:30:53;101298.03;;;1.86;58.21
7200;BME280;3641;49.082;8.200;2023-02-28T09:33:21;101297.50;;;2.06;57.32
7200;BME280;3641;49.082;8.200;2023-02-28T09:35:48;101293.84;;;2.20;56.87
7200;BME280;3641;49.082;8.200;2023-02-28T09:38:16;101290.38;;;2.18;56.48
7200;BME280;3641;49.082;8.200;2023-02-28T09:40:48;101289.31;;;2.33;56.96
7200;BME280;3641;49.082;8.200;2023-02-28T09:43:18;101290.16;;;2.47;56.43
7200;BME280;3641;49.082;8.200;2023-02-28T09:45:48;101288.13;;;2.38;56.50
7200;BME280;3641;49.082;8.200;2023-02-28T09:48:21;101282.19;;;2.45;57.23
7200;BME280;3641;49.082;8.200;2023-02-28T09:50:52;101280.81;;;2.40;56.50
7200;BME280;3641;49.082;8.200;2023-02-28T09:53:25;101282.19;;;2.32;56.14
7200;BME280;3641;49.082;8.200;2023-02-28T09:55:55;101275.81;;;2.59;56.29
7200;BME280;3641;49.082;8.200;2023-02-28T09:58:29;101276.66;;;2.60;55.86
7200;BME280;3641;49.082;8.200;2023-02-28T10:01:01;101277.84;;;2.68;55.72
7200;BME280;3641;49.082;8.200;2023-02-28T10:03:34;101274.09;;;2.95;54.67
7200;BME280;3641;49.082;8.200;2023-02-28T10:06:08;101264.97;;;4.72;50.75
7200;BME280;3641;49.082;8.200;2023-02-28T10:08:40;101276.28;;;4.77;51.53
7200;BME280;3641;49.082;8.200;2023-02-28T10:11:12;101281.16;;;5.92;48.56
7200;BME280;3641;49.082;8.200;2023-02-28T10:13:48;101281.69;;;4.54;51.29
7200;BME280;3641;49.082;8.200;2023-02-28T10:16:20;101283.84;;;3.93;51.74
7200;BME280;3641;49.082;8.200;2023-02-28T10:18:52;101289.34;;;3.80;53.17
7200;BME280;3641;49.082;8.200;2023-02-28T10:21:26;101290.69;;;3.50;55.36
7200;BME280;3641;49.082;8.200;2023-02-28T10:24:02;101285.16;;;3.16;53.21
7200;BME280;3641;49.082;8.200;2023-02-28T10:26:31;101288.81;;;3.39;56.14
7200;BME280;3641;49.082;8.200;2023-02-28T10:28:58;101288.41;;;3.33;55.29
7200;BME280;3641;49.082;8.200;2023-02-28T10:31:25;101296.50;;;3.33;54.70
7200;BME280;3641;49.082;8.200;2023-02-28T10:33:53;101285.47;;;3.12;54.00
7200;BME280;3641;49.082;8.200;2023-02-28T10:36:20;101292.34;;;3.16;54.68
7200;BME280;3641;49.082;8.200;2023-02-28T10:38:47;101287.91;;;3.03;55.34
7200;BME280;3641;49.082;8.200;2023-02-28T10:41:17;101285.13;;;2.92;53.67
7200;BME280;3641;49.082;8.200;2023-02-28T10:43:52;101289.78;;;3.14;55.20
7200;BME280;3641;49.082;8.200;2023-02-28T10:46:19;101285.09;;;3.05;54.44
7200;BME280;3641;49.082;8.200;2023-02-28T10:49:01;101280.94;;;3.12;54.64
7200;BME280;3641;49.082;8.200;2023-02-28T10:51:35;101280.09;;;3.12;54.13
7200;BME280;3641;49.082;8.200;2023-02-28T10:54:02;101288.69;;;3.17;54.54
7200;BME280;3641;49.082;8.200;2023-02-28T10:56:30;101284.81;;;3.21;53.94
7200;BME280;3641;49.082;8.200;2023-02-28T10:58:59;101283.59;;;3.25;54.24
7200;BME280;3641;49.082;8.200;2023-02-28T11:01:35;101278.19;;;3.25;53.70
7200;BME280;3641;49.082;8.200;2023-02-28T11:04:16;101283.69;;;3.48;53.75
7200;BME280;3641;49.082;8.200;2023-02-28T11:06:43;101286.44;;;3.59;53.54
7200;BME280;3641;49.082;8.200;2023-02-28T11:09:19;101285.31;;;3.50;53.69
7200;BME280;3641;49.082;8.200;2023-02-28T11:11:48;101296.31;;;3.47;53.27
7200;BME280;3641;49.082;8.200;2023-02-28T11:14:20;101282.03;;;3.58;52.32
7200;BME280;3641;49.082;8.200;2023-02-28T11:16:47;101271.53;;;3.77;53.32
7200;BME280;3641;49.082;8.200;2023-02-28T11:19:20;101270.59;;;3.90;53.00
7200;BME280;3641;49.082;8.200;2023-02-28T11:21:53;101271.69;;;3.98;52.86
7200;BME280;3641;49.082;8.200;2023-02-28T11:24:23;101274.63;;;3.95;52.53
7200;BME280;3641;49.082;8.200;2023-02-28T11:26:50;101265.31;;;3.88;52.67
7200;BME280;3641;49.082;8.200;2023-02-28T11:29:19;101283.28;;;3.76;51.52
7200;BME280;3641;49.082;8.200;2023-02-28T11:32:05;101271.19;;;3.82;52.48
7200;BME280;3641;49.082;8.200;2023-02-28T11:34:36;101271.75;;;3.74;51.48
7200;BME280;3641;49.082;8.200;2023-02-28T11:37:04;101265.56;;;3.96;52.43
7200;BME280;3641;49.082;8.200;2023-02-28T11:39:32;101262.25;;;3.93;51.94
7200;BME280;3641;49.082;8.200;2023-02-28T11:42:15;101262.03;;;4.07;51.23
7200;BME280;3641;49.082;8.200;2023-02-28T11:44:59;101248.75;;;4.15;51.63
7200;BME280;3641;49.082;8.200;2023-02-28T11:47:33;101257.84;;;4.26;51.36
7200;BME280;3641;49.082;8.200;2023-02-28T11:50:22;101248.16;;;4.23;51.41
7200;BME280;3641;49.082;8.200;2023-02-28T11:52:54;101255.63;;;4.19;51.72
7200;BME280;3641;49.082;8.200;2023-02-28T11:55:26;101252.19;;;4.29;51.60
7200;BME280;3641;49.082;8.200;2023-02-28T11:58:16;101248.41;;;4.31;53.03
7200;BME280;3641;49.082;8.200;2023-02-28T12:00:55;101238.56;;;4.30;51.19
7200;BME280;3641;49.082;8.200;2023-02-28T12:03:29;101248.03;;;4.36;52.57
7200;BME280;3641;49.082;8.200;2023-02-28T12:06:08;101243.00;;;4.43;51.13
7200;BME280;3641;49.082;8.200;2023-02-28T12:08:44;101250.50;;;4.50;51.19
7200;BME280;3641;49.082;8.200;2023-02-28T12:11:19;101251.22;;;4.64;52.10
7200;BME280;3641;49.082;8.200;2023-02-28T12:14:03;101241.88;;;4.68;51.94
7200;BME280;3641;49.082;8.200;2023-02-28T12:16:51;101249.00;;;4.58;50.12
7200;BME280;3641;49.082;8.200;2023-02-28T12:19:24;101243.44;;;4.70;50.22
7200;BME280;3641;49.082;8.200;2023-02-28T12:22:06;101245.19;;;4.71;49.91
7200;BME280;3641;49.082;8.200;2023-02-28T12:24:58;101245.44;;;4.68;50.15
7200;BME280;3641;49.082;8.200;2023-02-28T12:27:31;101249.00;;;4.69;49.54
7200;BME280;3641;49.082;8.200;2023-02-28T12:30:02;101242.59;;;4.70;50.94
7200;BME280;3641;49.082;8.200;2023-02-28T12:32:34;101240.88;;;4.69;50.76
7200;BME280;3641;49.082;8.200;2023-02-28T12:35:06;101243.22;;;4.62;51.50
7200;BME280;3641;49.082;8.200;2023-02-28T12:37:41;101239.78;;;4.71;52.50
7200;BME280;3641;49.082;8.200;2023-02-28T12:40:13;101238.56;;;4.64;49.85
7200;BME280;3641;49.082;8.200;2023-02-28T12:42:45;101237.44;;;4.67;51.02
7200;BME280;3641;49.082;8.200;2023-02-28T12:45:18;101224.91;;;4.54;50.20
7200;BME280;3641;49.082;8.200;2023-02-28T12:47:50;101215.59;;;4.59;51.20
7200;BME280;3641;49.082;8.200;2023-02-28T12:50:19;101226.28;;;4.49;50.95
7200;BME280;3641;49.082;8.200;2023-02-28T12:52:54;101221.59;;;4.51;50.85
7200;BME280;3641;49.082;8.200;2023-02-28T12:55:28;101215.81;;;4.67;52.45
7200;BME280;3641;49.082;8.200;2023-02-28T12:58:06;101222.94;;;4.68;50.84
7200;BME280;3641;49.082;8.200;2023-02-28T13:00:38;101211.53;;;4.64;50.59
7200;BME280;3641;49.082;8.200;2023-02-28T13:03:29;101204.25;;;4.65;50.74
7200;BME280;3641;49.082;8.200;2023-02-28T13:06:06;101212.47;;;4.75;50.89
7200;BME280;3641;49.082;8.200;2023-02-28T13:09:05;101214.81;;;4.79;50.95
7200;BME280;3641;49.082;8.200;2023-02-28T13:11:39;101211.00;;;4.70;49.08
7200;BME280;3641;49.082;8.200;2023-02-28T13:14:23;101209.31;;;4.69;50.76
7200;BME280;3641;49.082;8.200;2023-02-28T13:16:55;101209.53;;;4.78;51.01
7200;BME280;3641;49.082;8.200;2023-02-28T13:19:24;101207.22;;;4.62;48.55
7200;BME280;3641;49.082;8.200;2023-02-28T13:21:52;101205.38;;;4.62;50.98
7200;BME280;3641;49.082;8.200;2023-02-28T13:24:45;101218.25;;;4.81;51.16
7200;BME280;3641;49.082;8.200;2023-02-28T13:27:35;101204.25;;;4.65;48.77
7200;BME280;3641;49.082;8.200;2023-02-28T13:33:35;101208.34;;;4.48;48.91
7200;BME280;3641;49.082;8.200;2023-02-28T13:36:10;101203.53;;;4.63;51.12
7200;BME280;3641;49.082;8.200;2023-02-28T13:38:40;101208.19;;;4.61;50.25
7200;BME280;3641;49.082;8.200;2023-02-28T13:41:46;101213.47;;;4.62;50.63
7200;BME280;3641;49.082;8.200;2023-02-28T13:44:14;101210.41;;;4.67;51.10
7200;BME280;3641;49.082;8.200;2023-02-28T13:50:15;101205.84;;;4.67;50.66
7200;BME280;3641;49.082;8.200;2023-02-28T13:52:50;101200.09;;;4.49;49.83